sensor_id;sensor_type;location;lat;lon;timestamp;P1;durP1;ratioP1;P2;durP2;ratioP2
50429;SDS011;36359;41.556;-8.418;2023-04-03T00:00:03;6.77;;;2.00;;
50429;SDS011;36359;41.556;-8.418;2023-04-03T00:02:31;5.88;;;1.83;;
50429;SDS011;36359;41.556;-8.418;2023-04-03T00:04:57;6.90;;;2.92;;
50429;SDS011;36359;41.556;-8.418;2023-04-03T00:07:23;6.10;;;2.53;;
50429;SDS011;36359;41.556;-8.418;2023-04-03T00:09:48;10.88;;;3.60;;
50429;SDS011;36359;41.556;-8.418;2023-04-03T00:12:14;3.90;;;2.20;;
50429;SDS011;36359;41.556;-8.418;2023-04-03T00:14:40;6.63;;;2.27;;
50429;SDS011;36359;41.556;-8.418;2023-04-03T00:17:06;4.90;;;2.20;;
50429;SDS011;36359;41.556;-8.418;2023-04-03T00:19:32;10.27;;;2.73;;
50429;SDS011;36359;41.556;-8.418;2023-04-03T00:21:58;7.27;;;1.70;;
50429;SDS011;36359;41.556;-8.418;2023-04-03T00:24:23;5.67;;;2.53;;
50429;SDS011;36359;41.556;-8.418;2023-04-03T00:26:49;10.20;;;3.47;;
50429;SDS011;36359;41.556;-8.418;2023-04-03T00:29:15;8.03;;;2.97;;
50429;SDS011;36359;41.556;-8.418;2023-04-03T00:31:41;9.00;;;2.97;;
50429;SDS011;36359;41.556;-8.418;2023-04-03T00:34:06;7.77;;;2.83;;
50429;SDS011;36359;41.556;-8.418;2023-04-03T00:36:35;7.28;;;2.83;;
50429;SDS011;36359;41.556;-8.418;2023-04-03T00:39:01;8.27;;;3.20;;
50429;SDS011;36359;41.556;-8.418;2023-04-03T00:41:26;7.43;;;2.70;;
50429;SDS011;36359;41.556;-8.418;2023-04-03T00:43:52;6.80;;;2.40;;
50429;SDS011;36359;41.556;-8.418;2023-04-03T00:46:18;6.27;;;2.50;;
50429;SDS011;36359;41.556;-8.418;2023-04-03T00:48:45;7.00;;;2.70;;
50429;SDS011;36359;41.556;-8.418;2023-04-03T00:51:13;7.50;;;2.20;;
50429;SDS011;36359;41.556;-8.418;2023-04-03T00:53:44;7.75;;;2.25;;
50429;SDS011;36359;41.556;-8.418;2023-04-03T00:56:15;5.88;;;2.20;;
50429;SDS011;36359;41.556;-8.418;2023-04-03T00:58:48;6.60;;;2.10;;
50429;SDS011;36359;41.556;-8.418;2023-04-03T01:01:20;5.47;;;1.97;;
50429;SDS011;36359;41.556;-8.418;2023-04-03T01:03:49;5.30;;;1.73;;
50429;SDS011;36359;41.556;-8.418;2023-04-03T01:06:16;7.15;;;2.13;;
50429;SDS011;36359;41.556;-8.418;2023-04-03T01:08:47;4.40;;;1.63;;
50429;SDS011;36359;41.556;-8.418;2023-04-03T01:11:14;7.17;;;1.83;;
50429;SDS011;36359;41.556;-8.418;2023-04-03T01:13:41;5.57;;;1.80;;
50429;SDS011;36359;41.556;-8.418;2023-04-03T01:16:07;6.50;;;3.43;;
50429;SDS011;36359;41.556;-8.418;2023-04-03T01:18:34;15.33;;;6.80;;
50429;SDS011;36359;41.556;-8.418;2023-04-03T01:26:38;10.97;;;6.10;;
50429;SDS011;36359;41.556;-8.418;2023-04-03T01:29:04;7.37;;;3.13;;
50429;SDS011;36359;41.556;-8.418;2023-04-03T01:34:15;18.30;;;7.23;;
50429;SDS011;36359;41.556;-8.418;2023-04-03T01:36:41;14.43;;;7.10;;
50429;SDS011;36359;41.556;-8.418;2023-04-03T01:39:08;13.20;;;6.13;;
50429;SDS011;36359;41.556;-8.418;2023-04-03T01:41:33;9.77;;;4.50;;
50429;SDS011;36359;41.556;-8.418;2023-04-03T01:44:07;8.07;;;3.37;;
50429;SDS011;36359;41.556;-8.418;2023-04-03T01:46:33;10.57;;;3.57;;
50429;SDS011;36359;41.556;-8.418;2023-04-03T01:48:59;8.13;;;3.30;;
50429;SDS011;36359;41.556;-8.418;2023-04-03T01:51:25;7.60;;;2.60;;
50429;SDS011;36359;41.556;-8.418;2023-04-03T01:53:51;5.40;;;2.80;;
50429;SDS011;36359;41.556;-8.418;2023-04-03T01:56:17;8.83;;;3.20;;
50429;SDS011;36359;41.556;-8.418;2023-04-03T01:58:45;8.10;;;3.17;;
50429;SDS011;36359;41.556;-8.418;2023-04-03T02:01:11;6.40;;;2.90;;
50429;SDS011;36359;41.556;-8.418;2023-04-03T02:03:37;5.13;;;2.60;;
50429;SDS011;36359;41.556;-8.418;2023-04-03T02:06:02;8.27;;;2.70;;
50429;SDS011;36359;41.556;-8.418;2023-04-03T02:08:28;7.27;;;2.60;;
50429;SDS011;36359;41.556;-8.418;2023-04-03T02:10:54;7.50;;;2.77;;
50429;SDS011;36359;41.556;-8.418;2023-04-03T02:13:19;8.17;;;3.90;;
50429;SDS011;36359;41.556;-8.418;2023-04-03T02:15:46;5.37;;;2.20;;
50429;SDS011;36359;41.556;-8.418;2023-04-03T02:18:15;7.97;;;1.90;;
50429;SDS011;36359;41.556;-8.418;2023-04-03T02:20:41;4.27;;;1.30;;
50429;SDS011;36359;41.556;-8.418;2023-04-03T02:23:07;4.80;;;1.43;;
50429;SDS011;36359;41.556;-8.418;2023-04-03T02:25:33;4.37;;;1.60;;
50429;SDS011;36359;41.556;-8.418;2023-04-03T02:27:59;7.47;;;1.43;;
50429;SDS011;36359;41.556;-8.418;2023-04-03T02:30:25;4.23;;;1.43;;
50429;SDS011;36359;41.556;-8.418;2023-04-03T02:32:51;4.53;;;1.40;;
50429;SDS011;36359;41.556;-8.418;2023-04-03T02:35:17;5.80;;;1.70;;
50429;SDS011;36359;41.556;-8.418;2023-04-03T02:37:43;2.50;;;1.00;;
50429;SDS011;36359;41.556;-8.418;2023-04-03T02:40:09;3.50;;;1.30;;
50429;SDS011;36359;41.556;-8.418;2023-04-03T02:42:37;5.10;;;1.50;;
50429;SDS011;36359;41.556;-8.418;2023-04-03T02:45:04;5.47;;;1.70;;
50429;SDS011;36359;41.556;-8.418;2023-04-03T02:47:30;5.07;;;1.73;;
50429;SDS011;36359;41.556;-8.418;2023-04-03T02:49:56;4.70;;;1.40;;
50429;SDS011;36359;41.556;-8.418;2023-04-03T02:52:21;3.87;;;1.20;;
50429;SDS011;36359;41.556;-8.418;2023-04-03T02:54:48;4.60;;;1.30;;
50429;SDS011;36359;41.556;-8.418;2023-04-03T02:57:14;4.97;;;1.90;;
50429;SDS011;36359;41.556;-8.418;2023-04-03T02:59:40;4.33;;;1.43;;
50429;SDS011;36359;41.556;-8.418;2023-04-03T03:02:10;4.33;;;1.60;;
50429;SDS011;36359;41.556;-8.418;2023-04-03T03:04:36;4.97;;;1.70;;
50429;SDS011;36359;41.556;-8.418;2023-04-03T03:07:02;5.67;;;2.13;;
50429;SDS011;36359;41.556;-8.418;2023-04-03T03:09:29;6.30;;;1.90;;
50429;SDS011;36359;41.556;-8.418;2023-04-03T03:11:55;5.70;;;1.90;;
50429;SDS011;36359;41.556;-8.418;2023-04-03T03:14:21;4.03;;;1.63;;
50429;SDS011;36359;41.556;-8.418;2023-04-03T03:16:47;3.93;;;1.60;;
50429;SDS011;36359;41.556;-8.418;2023-04-03T03:19:19;3.83;;;1.47;;
50429;SDS011;36359;41.556;-8.418;2023-04-03T03:21:45;4.73;;;2.20;;
50429;SDS011;36359;41.556;-8.418;2023-04-03T03:24:11;5.23;;;1.90;;
50429;SDS011;36359;41.556;-8.418;2023-04-03T03:26:37;4.53;;;1.40;;
50429;SDS011;36359;41.556;-8.418;2023-04-03T03:29:03;4.47;;;1.43;;
50429;SDS011;36359;41.556;-8.418;2023-04-03T03:31:28;5.60;;;1.60;;
50429;SDS011;36359;41.556;-8.418;2023-04-03T03:33:54;5.77;;;2.23;;
50429;SDS011;36359;41.556;-8.418;2023-04-03T03:36:21;5.77;;;1.63;;
50429;SDS011;36359;41.556;-8.418;2023-04-03T03:38:47;2.70;;;1.10;;
50429;SDS011;36359;41.556;-8.418;2023-04-03T03:41:13;2.40;;;1.20;;
50429;SDS011;36359;41.556;-8.418;2023-04-03T03:43:40;3.83;;;1.73;;
50429;SDS011;36359;41.556;-8.418;2023-04-03T03:46:07;4.07;;;1.63;;
50429;SDS011;36359;41.556;-8.418;2023-04-03T03:48:32;9.70;;;3.20;;
50429;SDS011;36359;41.556;-8.418;2023-04-03T03:50:58;11.60;;;5.87;;
50429;SDS011;36359;41.556;-8.418;2023-04-03T03:53:29;9.02;;;5.20;;
50429;SDS011;36359;41.556;-8.418;2023-04-03T03:55:58;11.30;;;4.87;;
50429;SDS011;36359;41.556;-8.418;2023-04-03T03:58:26;6.87;;;3.43;;
50429;SDS011;36359;41.556;-8.418;2023-04-03T04:00:52;8.50;;;3.00;;
50429;SDS011;36359;41.556;-8.418;2023-04-03T04:03:18;10.70;;;5.07;;
50429;SDS011;36359;41.556;-8.418;2023-04-03T04:05:46;10.03;;;4.97;;
50429;SDS011;36359;41.556;-8.418;2023-04-03T04:08:12;10.40;;;5.50;;
50429;SDS011;36359;41.556;-8.418;2023-04-03T04:10:38;10.53;;;5.90;;
50429;SDS011;36359;41.556;-8.418;2023-04-03T04:13:05;11.77;;;5.43;;
50429;SDS011;36359;41.556;-8.418;2023-04-03T04:15:31;6.60;;;2.90;;
50429;SDS011;36359;41.556;-8.418;2023-04-03T04:17:57;7.03;;;3.80;;
50429;SDS011;36359;41.556;-8.418;2023-04-03T04:20:23;7.67;;;4.40;;
50429;SDS011;36359;41.556;-8.418;2023-04-03T04:22:49;9.47;;;3.10;;
50429;SDS011;36359;41.556;-8.418;2023-04-03T04:25:17;8.23;;;3.27;;
50429;SDS011;36359;41.556;-8.418;2023-04-03T04:27:43;9.97;;;3.37;;
50429;SDS011;36359;41.556;-8.418;2023-04-03T04:30:11;5.50;;;2.93;;
50429;SDS011;36359;41.556;-8.418;2023-04-03T04:32:38;5.40;;;2.90;;
50429;SDS011;36359;41.556;-8.418;2023-04-03T04:35:04;6.93;;;2.37;;
50429;SDS011;36359;41.556;-8.418;2023-04-03T04:37:32;6.17;;;2.20;;
50429;SDS011;36359;41.556;-8.418;2023-04-03T04:39:59;6.20;;;2.30;;
50429;SDS011;36359;41.556;-8.418;2023-04-03T04:42:25;3.77;;;1.53;;
50429;SDS011;36359;41.556;-8.418;2023-04-03T04:44:51;7.63;;;1.73;;
50429;SDS011;36359;41.556;-8.418;2023-04-03T04:47:17;4.03;;;1.77;;
50429;SDS011;36359;41.556;-8.418;2023-04-03T04:49:43;3.60;;;1.33;;
50429;SDS011;36359;41.556;-8.418;2023-04-03T04:52:09;4.73;;;1.47;;
50429;SDS011;36359;41.556;-8.418;2023-04-03T04:54:37;3.13;;;1.80;;
50429;SDS011;36359;41.556;-8.418;2023-04-03T04:57:03;2.37;;;1.13;;
50429;SDS011;36359;41.556;-8.418;2023-04-03T04:59:29;3.17;;;1.20;;
50429;SDS011;36359;41.556;-8.418;2023-04-03T05:01:57;3.77;;;1.33;;
50429;SDS011;36359;41.556;-8.418;2023-04-03T05:04:23;2.43;;;0.90;;
50429;SDS011;36359;41.556;-8.418;2023-04-03T05:06:54;2.80;;;1.50;;
50429;SDS011;36359;41.556;-8.418;2023-04-03T05:09:23;6.53;;;1.50;;
50429;SDS011;36359;41.556;-8.418;2023-04-03T05:11:50;5.80;;;1.77;;
50429;SDS011;36359;41.556;-8.418;2023-04-03T05:14:18;4.17;;;2.27;;
50429;SDS011;36359;41.556;-8.418;2023-04-03T05:19:18;5.53;;;2.30;;
50429;SDS011;36359;41.556;-8.418;2023-04-03T05:21:45;5.60;;;2.67;;
50429;SDS011;36359;41.556;-8.418;2023-04-03T05:24:14;4.23;;;2.03;;
50429;SDS011;36359;41.556;-8.418;2023-04-03T05:26:42;5.13;;;2.50;;
50429;SDS011;36359;41.556;-8.418;2023-04-03T05:29:09;7.00;;;2.30;;
50429;SDS011;36359;41.556;-8.418;2023-04-03T05:31:36;6.33;;;2.23;;
50429;SDS011;36359;41.556;-8.418;2023-04-03T05:34:02;4.47;;;2.50;;
50429;SDS011;36359;41.556;-8.418;2023-04-03T05:36:31;5.30;;;2.70;;
50429;SDS011;36359;41.556;-8.418;2023-04-03T05:44:33;5.10;;;1.80;;
50429;SDS011;36359;41.556;-8.418;2023-04-03T05:49:32;5.47;;;2.00;;
50429;SDS011;36359;41.556;-8.418;2023-04-03T05:51:58;5.00;;;1.87;;
50429;SDS011;36359;41.556;-8.418;2023-04-03T05:54:28;4.07;;;1.80;;
50429;SDS011;36359;41.556;-8.418;2023-04-03T05:57:02;6.60;;;2.03;;
50429;SDS011;36359;41.556;-8.418;2023-04-03T05:59:28;4.67;;;1.87;;
50429;SDS011;36359;41.556;-8.418;2023-04-03T06:01:56;5.60;;;2.13;;
50429;SDS011;36359;41.556;-8.418;2023-04-03T06:04:23;5.10;;;1.80;;
50429;SDS011;36359;41.556;-8.418;2023-04-03T06:09:20;12.07;;;3.10;;
50429;SDS011;36359;41.556;-8.418;2023-04-03T06:11:47;8.73;;;2.43;;
50429;SDS011;36359;41.556;-8.418;2023-04-03T06:14:13;7.30;;;2.70;;
50429;SDS011;36359;41.556;-8.418;2023-04-03T06:16:39;6.23;;;3.40;;
50429;SDS011;36359;41.556;-8.418;2023-04-03T06:19:09;9.30;;;4.60;;
50429;SDS011;36359;41.556;-8.418;2023-04-03T06:21:39;8.77;;;4.97;;
50429;SDS011;36359;41.556;-8.418;2023-04-03T06:24:05;9.93;;;5.00;;
50429;SDS011;36359;41.556;-8.418;2023-04-03T06:26:34;9.30;;;4.73;;
50429;SDS011;36359;41.556;-8.418;2023-04-03T06:29:00;8.40;;;4.23;;
50429;SDS011;36359;41.556;-8.418;2023-04-03T06:31:27;8.87;;;5.17;;
50429;SDS011;36359;41.556;-8.418;2023-04-03T06:33:52;9.57;;;4.60;;
50429;SDS011;36359;41.556;-8.418;2023-04-03T06:36:19;10.30;;;4.10;;
50429;SDS011;36359;41.556;-8.418;2023-04-03T06:38:46;7.73;;;5.03;;
50429;SDS011;36359;41.556;-8.418;2023-04-03T06:41:12;9.13;;;4.40;;
50429;SDS011;36359;41.556;-8.418;2023-04-03T06:43:38;5.17;;;2.80;;
50429;SDS011;36359;41.556;-8.418;2023-04-03T06:46:04;5.50;;;2.60;;
50429;SDS011;36359;41.556;-8.418;2023-04-03T06:48:30;5.47;;;3.10;;
50429;SDS011;36359;41.556;-8.418;2023-04-03T06:50:56;5.33;;;2.90;;
50429;SDS011;36359;41.556;-8.418;2023-04-03T06:53:22;6.27;;;2.97;;
50429;SDS011;36359;41.556;-8.418;2023-04-03T06:55:48;6.00;;;2.60;;
50429;SDS011;36359;41.556;-8.418;2023-04-03T06:58:14;8.60;;;3.90;;
50429;SDS011;36359;41.556;-8.418;2023-04-03T07:00:40;11.47;;;5.57;;
50429;SDS011;36359;41.556;-8.418;2023-04-03T07:03:06;13.53;;;8.93;;
50429;SDS011;36359;41.556;-8.418;2023-04-03T07:05:32;17.63;;;9.43;;
50429;SDS011;36359;41.556;-8.418;2023-04-03T07:07:57;15.87;;;9.43;;
50429;SDS011;36359;41.556;-8.418;2023-04-03T07:10:23;19.90;;;9.50;;
50429;SDS011;36359;41.556;-8.418;2023-04-03T07:12:49;18.87;;;10.20;;
50429;SDS011;36359;41.556;-8.418;2023-04-03T07:15:15;15.47;;;9.87;;
50429;SDS011;36359;41.556;-8.418;2023-04-03T07:17:40;25.33;;;14.00;;
50429;SDS011;36359;41.556;-8.418;2023-04-03T07:20:06;25.80;;;12.27;;
50429;SDS011;36359;41.556;-8.418;2023-04-03T07:22:33;10.50;;;5.80;;
50429;SDS011;36359;41.556;-8.418;2023-04-03T07:24:59;11.93;;;5.90;;
50429;SDS011;36359;41.556;-8.418;2023-04-03T07:27:25;14.73;;;7.80;;
50429;SDS011;36359;41.556;-8.418;2023-04-03T07:29:51;11.03;;;6.83;;
50429;SDS011;36359;41.556;-8.418;2023-04-03T07:32:17;13.67;;;8.17;;
50429;SDS011;36359;41.556;-8.418;2023-04-03T07:34:43;12.30;;;7.07;;
50429;SDS011;36359;41.556;-8.418;2023-04-03T07:37:09;7.13;;;3.50;;
50429;SDS011;36359;41.556;-8.418;2023-04-03T07:39:35;7.80;;;4.37;;
50429;SDS011;36359;41.556;-8.418;2023-04-03T07:42:01;9.93;;;4.23;;
50429;SDS011;36359;41.556;-8.418;2023-04-03T07:44:27;17.07;;;6.90;;
50429;SDS011;36359;41.556;-8.418;2023-04-03T07:46:53;17.43;;;7.93;;
50429;SDS011;36359;41.556;-8.418;2023-04-03T07:49:21;19.27;;;7.23;;
50429;SDS011;36359;41.556;-8.418;2023-04-03T07:51:49;25.87;;;7.73;;
50429;SDS011;36359;41.556;-8.418;2023-04-03T07:54:15;16.90;;;6.33;;
50429;SDS011;36359;41.556;-8.418;2023-04-03T07:56:41;13.07;;;4.67;;
50429;SDS011;36359;41.556;-8.418;2023-04-03T07:59:08;9.50;;;3.73;;
50429;SDS011;36359;41.556;-8.418;2023-04-03T08:01:34;9.17;;;3.20;;
50429;SDS011;36359;41.556;-8.418;2023-04-03T08:04:00;6.90;;;3.30;;
50429;SDS011;36359;41.556;-8.418;2023-04-03T08:06:26;6.10;;;2.47;;
50429;SDS011;36359;41.556;-8.418;2023-04-03T08:08:54;4.87;;;2.67;;
50429;SDS011;36359;41.556;-8.418;2023-04-03T08:11:20;6.00;;;1.97;;
50429;SDS011;36359;41.556;-8.418;2023-04-03T08:13:48;4.87;;;1.93;;
50429;SDS011;36359;41.556;-8.418;2023-04-03T08:16:18;7.73;;;1.60;;
50429;SDS011;36359;41.556;-8.418;2023-04-03T08:18:47;6.97;;;1.70;;
50429;SDS011;36359;41.556;-8.418;2023-04-03T08:21:13;6.07;;;2.50;;
50429;SDS011;36359;41.556;-8.418;2023-04-03T08:23:40;5.43;;;1.90;;
50429;SDS011;36359;41.556;-8.418;2023-04-03T08:26:13;3.43;;;1.60;;
50429;SDS011;36359;41.556;-8.418;2023-04-03T08:28:40;6.03;;;2.37;;
50429;SDS011;36359;41.556;-8.418;2023-04-03T08:31:08;4.80;;;1.90;;
50429;SDS011;36359;41.556;-8.418;2023-04-03T08:33:37;3.80;;;1.60;;
50429;SDS011;36359;41.556;-8.418;2023-04-03T08:36:05;3.33;;;1.47;;
50429;SDS011;36359;41.556;-8.418;2023-04-03T08:38:32;6.93;;;2.03;;
50429;SDS011;36359;41.556;-8.418;2023-04-03T08:41:10;8.10;;;2.73;;
50429;SDS011;36359;41.556;-8.418;2023-04-03T08:51:56;4.88;;;2.30;;
50429;SDS011;36359;41.556;-8.418;2023-04-03T08:54:30;4.95;;;1.35;;
50429;SDS011;36359;41.556;-8.418;2023-04-03T08:57:03;3.67;;;1.20;;
50429;SDS011;36359;41.556;-8.418;2023-04-03T08:59:34;3.87;;;1.57;;
50429;SDS011;36359;41.556;-8.418;2023-04-03T09:02:13;5.57;;;1.30;;
50429;SDS011;36359;41.556;-8.418;2023-04-03T09:04:48;2.80;;;1.13;;
50429;SDS011;36359;41.556;-8.418;2023-04-03T09:07:16;6.10;;;2.07;;
50429;SDS011;36359;41.556;-8.418;2023-04-03T09:09:59;5.13;;;2.23;;
50429;SDS011;36359;41.556;-8.418;2023-04-03T09:12:32;6.57;;;2.00;;
50429;SDS011;36359;41.556;-8.418;2023-04-03T09:23:22;5.60;;;1.90;;
50429;SDS011;36359;41.556;-8.418;2023-04-03T09:26:13;6.68;;;1.50;;
50429;SDS011;36359;41.556;-8.418;2023-04-03T09:28:44;5.07;;;1.90;;
50429;SDS011;36359;41.556;-8.418;2023-04-03T09:33:46;5.65;;;1.92;;
50429;SDS011;36359;41.556;-8.418;2023-04-03T09:36:36;6.18;;;2.17;;
50429;SDS011;36359;41.556;-8.418;2023-04-03T09:39:12;5.20;;;1.70;;
50429;SDS011;36359;41.556;-8.418;2023-04-03T09:41:41;6.05;;;2.20;;
50429;SDS011;36359;41.556;-8.418;2023-04-03T09:44:24;4.80;;;2.10;;
50429;SDS011;36359;41.556;-8.418;2023-04-03T09:46:55;7.57;;;2.78;;
50429;SDS011;36359;41.556;-8.418;2023-04-03T09:49:21;7.00;;;3.15;;
50429;SDS011;36359;41.556;-8.418;2023-04-03T09:51:47;6.97;;;2.58;;
50429;SDS011;36359;41.556;-8.418;2023-04-03T09:54:24;6.05;;;3.13;;
50429;SDS011;36359;41.556;-8.418;2023-04-03T09:56:51;8.68;;;3.05;;
50429;SDS011;36359;41.556;-8.418;2023-04-03T09:59:20;6.22;;;2.97;;
50429;SDS011;36359;41.556;-8.418;2023-04-03T10:04:53;11.55;;;4.70;;
50429;SDS011;36359;41.556;-8.418;2023-04-03T10:07:32;6.55;;;3.40;;
50429;SDS011;36359;41.556;-8.418;2023-04-03T10:10:02;8.15;;;3.35;;
50429;SDS011;36359;41.556;-8.418;2023-04-03T10:15:33;7.63;;;3.75;;
50429;SDS011;36359;41.556;-8.418;2023-04-03T10:18:06;8.18;;;4.05;;
50429;SDS011;36359;41.556;-8.418;2023-04-03T10:20:53;6.72;;;3.60;;
50429;SDS011;36359;41.556;-8.418;2023-04-03T10:23:26;9.65;;;4.20;;
50429;SDS011;36359;41.556;-8.418;2023-04-03T10:34:21;10.70;;;3.92;;
50429;SDS011;36359;41.556;-8.418;2023-04-03T10:37:06;13.23;;;4.75;;
50429;SDS011;36359;41.556;-8.418;2023-04-03T10:39:51;8.98;;;4.65;;
50429;SDS011;36359;41.556;-8.418;2023-04-03T10:42:39;10.88;;;4.45;;
50429;SDS011;36359;41.556;-8.418;2023-04-03T10:58:50;7.85;;;2.90;;
50429;SDS011;36359;41.556;-8.418;2023-04-03T11:01:21;7.63;;;3.30;;
50429;SDS011;36359;41.556;-8.418;2023-04-03T11:03:55;4.97;;;2.58;;
50429;SDS011;36359;41.556;-8.418;2023-04-03T11:06:24;7.90;;;3.22;;
50429;SDS011;36359;41.556;-8.418;2023-04-03T11:09:01;8.30;;;2.83;;
50429;SDS011;36359;41.556;-8.418;2023-04-03T11:11:33;11.52;;;5.43;;
50429;SDS011;36359;41.556;-8.418;2023-04-03T11:17:37;6.95;;;2.40;;
50429;SDS011;36359;41.556;-8.418;2023-04-03T11:20:00;8.70;;;3.42;;
50429;SDS011;36359;41.556;-8.418;2023-04-03T11:25:29;9.18;;;3.75;;
50429;SDS011;36359;41.556;-8.418;2023-04-03T11:28:01;4.72;;;2.20;;
50429;SDS011;36359;41.556;-8.418;2023-04-03T11:33:51;7.45;;;3.65;;
50429;SDS011;36359;41.556;-8.418;2023-04-03T11:36:29;19.00;;;11.02;;
50429;SDS011;36359;41.556;-8.418;2023-04-03T11:38:59;7.53;;;4.55;;
50429;SDS011;36359;41.556;-8.418;2023-04-03T11:41:45;8.82;;;5.07;;
50429;SDS011;36359;41.556;-8.418;2023-04-03T11:44:27;29.08;;;5.05;;
50429;SDS011;36359;41.556;-8.418;2023-04-03T11:46:58;8.45;;;3.95;;
50429;SDS011;36359;41.556;-8.418;2023-04-03T11:55:41;12.80;;;7.47;;
50429;SDS011;36359;41.556;-8.418;2023-04-03T12:13:34;10.00;;;5.75;;
50429;SDS011;36359;41.556;-8.418;2023-04-03T12:16:00;11.60;;;5.85;;
50429;SDS011;36359;41.556;-8.418;2023-04-03T12:23:58;8.68;;;5.07;;
50429;SDS011;36359;41.556;-8.418;2023-04-03T12:37:06;11.80;;;7.13;;
50429;SDS011;36359;41.556;-8.418;2023-04-03T12:42:26;13.30;;;8.45;;
50429;SDS011;36359;41.556;-8.418;2023-04-03T12:45:20;11.93;;;6.93;;
50429;SDS011;36359;41.556;-8.418;2023-04-03T12:47:52;9.77;;;5.78;;
50429;SDS011;36359;41.556;-8.418;2023-04-03T12:50:23;12.02;;;5.72;;
50429;SDS011;36359;41.556;-8.418;2023-04-03T12:52:51;10.50;;;6.15;;
50429;SDS011;36359;41.556;-8.418;2023-04-03T12:55:31;15.82;;;6.43;;
50429;SDS011;36359;41.556;-8.418;2023-04-03T12:57:57;9.70;;;5.10;;
50429;SDS011;36359;41.556;-8.418;2023-04-03T13:00:42;10.55;;;6.07;;
50429;SDS011;36359;41.556;-8.418;2023-04-03T13:03:19;11.40;;;4.40;;
50429;SDS011;36359;41.556;-8.418;2023-04-03T13:05:48;8.68;;;4.50;;
50429;SDS011;36359;41.556;-8.418;2023-04-03T13:08:14;12.80;;;4.30;;
50429;SDS011;36359;41.556;-8.418;2023-04-03T13:11:15;18.10;;;6.07;;
50429;SDS011;36359;41.556;-8.418;2023-04-03T13:13:37;12.02;;;5.15;;
50429;SDS011;36359;41.556;-8.418;2023-04-03T13:16:07;10.88;;;4.18;;
50429;SDS011;36359;41.556;-8.418;2023-04-03T13:18:35;9.10;;;4.28;;
50429;SDS011;36359;41.556;-8.418;2023-04-03T13:23:39;24.02;;;12.63;;
50429;SDS011;36359;41.556;-8.418;2023-04-03T13:26:07;8.95;;;4.90;;
50429;SDS011;36359;41.556;-8.418;2023-04-03T13:28:34;11.85;;;5.40;;
50429;SDS011;36359;41.556;-8.418;2023-04-03T13:36:42;8.45;;;4.53;;
50429;SDS011;36359;41.556;-8.418;2023-04-03T13:41:39;11.43;;;6.22;;
50429;SDS011;36359;41.556;-8.418;2023-04-03T13:46:51;12.85;;;6.85;;
50429;SDS011;36359;41.556;-8.418;2023-04-03T13:49:22;14.07;;;7.60;;
50429;SDS011;36359;41.556;-8.418;2023-04-03T13:52:17;8.80;;;5.07;;
50429;SDS011;36359;41.556;-8.418;2023-04-03T13:54:58;9.10;;;4.20;;
50429;SDS011;36359;41.556;-8.418;2023-04-03T13:57:28;8.27;;;4.18;;
50429;SDS011;36359;41.556;-8.418;2023-04-03T13:59:53;14.07;;;8.65;;
50429;SDS011;36359;41.556;-8.418;2023-04-03T14:02:29;11.18;;;5.60;;
50429;SDS011;36359;41.556;-8.418;2023-04-03T14:04:59;10.82;;;5.13;;
50429;SDS011;36359;41.556;-8.418;2023-04-03T14:07:27;12.32;;;4.80;;
50429;SDS011;36359;41.556;-8.418;2023-04-03T14:09:54;11.00;;;4.90;;
50429;SDS011;36359;41.556;-8.418;2023-04-03T14:12:34;9.50;;;4.20;;
50429;SDS011;36359;41.556;-8.418;2023-04-03T14:15:06;13.23;;;7.57;;
50429;SDS011;36359;41.556;-8.418;2023-04-03T14:17:40;17.40;;;6.90;;
50429;SDS011;36359;41.556;-8.418;2023-04-03T14:22:34;8.27;;;4.40;;
50429;SDS011;36359;41.556;-8.418;2023-04-03T14:25:00;13.45;;;5.57;;
50429;SDS011;36359;41.556;-8.418;2023-04-03T14:27:33;11.38;;;5.35;;
50429;SDS011;36359;41.556;-8.418;2023-04-03T14:30:01;11.25;;;5.18;;
50429;SDS011;36359;41.556;-8.418;2023-04-03T14:32:29;14.27;;;5.60;;
50429;SDS011;36359;41.556;-8.418;2023-04-03T14:34:55;12.18;;;5.13;;
50429;SDS011;36359;41.556;-8.418;2023-04-03T14:37:24;8.95;;;4.47;;
50429;SDS011;36359;41.556;-8.418;2023-04-03T14:39:55;10.45;;;5.03;;
50429;SDS011;36359;41.556;-8.418;2023-04-03T14:42:23;11.90;;;5.97;;
50429;SDS011;36359;41.556;-8.418;2023-04-03T14:44:51;9.00;;;4.93;;
50429;SDS011;36359;41.556;-8.418;2023-04-03T14:47:22;14.27;;;7.70;;
50429;SDS011;36359;41.556;-8.418;2023-04-03T14:49:50;14.25;;;7.15;;
50429;SDS011;36359;41.556;-8.418;2023-04-03T14:54:47;33.63;;;19.15;;
50429;SDS011;36359;41.556;-8.418;2023-04-03T14:57:14;6.00;;;2.70;;
50429;SDS011;36359;41.556;-8.418;2023-04-03T14:59:41;9.30;;;3.03;;
50429;SDS011;36359;41.556;-8.418;2023-04-03T15:04:57;11.35;;;3.80;;
50429;SDS011;36359;41.556;-8.418;2023-04-03T15:07:25;16.67;;;8.48;;
50429;SDS011;36359;41.556;-8.418;2023-04-03T15:09:53;11.50;;;4.95;;
50429;SDS011;36359;41.556;-8.418;2023-04-03T15:12:21;22.48;;;10.30;;
50429;SDS011;36359;41.556;-8.418;2023-04-03T15:14:48;20.85;;;11.73;;
50429;SDS011;36359;41.556;-8.418;2023-04-03T15:17:17;9.00;;;4.22;;
50429;SDS011;36359;41.556;-8.418;2023-04-03T15:19:46;12.75;;;4.65;;
50429;SDS011;36359;41.556;-8.418;2023-04-03T15:22:14;7.85;;;3.83;;
50429;SDS011;36359;41.556;-8.418;2023-04-03T15:24:42;8.75;;;4.60;;
50429;SDS011;36359;41.556;-8.418;2023-04-03T15:27:09;12.25;;;4.35;;
50429;SDS011;36359;41.556;-8.418;2023-04-03T15:29:37;22.48;;;10.70;;
50429;SDS011;36359;41.556;-8.418;2023-04-03T15:32:04;12.15;;;4.13;;
50429;SDS011;36359;41.556;-8.418;2023-04-03T15:34:30;7.55;;;3.78;;
50429;SDS011;36359;41.556;-8.418;2023-04-03T15:36:56;11.18;;;6.60;;
50429;SDS011;36359;41.556;-8.418;2023-04-03T15:39:22;12.82;;;4.30;;
50429;SDS011;36359;41.556;-8.418;2023-04-03T15:41:50;15.77;;;8.70;;
50429;SDS011;36359;41.556;-8.418;2023-04-03T15:44:17;21.40;;;10.88;;
50429;SDS011;36359;41.556;-8.418;2023-04-03T15:46:44;16.00;;;8.57;;
50429;SDS011;36359;41.556;-8.418;2023-04-03T15:49:11;13.48;;;4.85;;
50429;SDS011;36359;41.556;-8.418;2023-04-03T15:51:37;15.15;;;6.45;;
50429;SDS011;36359;41.556;-8.418;2023-04-03T15:54:03;14.27;;;6.53;;
50429;SDS011;36359;41.556;-8.418;2023-04-03T15:56:29;12.70;;;3.70;;
50429;SDS011;36359;41.556;-8.418;2023-04-03T15:58:55;9.93;;;4.28;;
50429;SDS011;36359;41.556;-8.418;2023-04-03T16:01:20;10.77;;;3.90;;
50429;SDS011;36359;41.556;-8.418;2023-04-03T16:03:46;14.63;;;7.20;;
50429;SDS011;36359;41.556;-8.418;2023-04-03T16:06:13;11.88;;;5.07;;
50429;SDS011;36359;41.556;-8.418;2023-04-03T16:08:40;11.65;;;4.28;;
50429;SDS011;36359;41.556;-8.418;2023-04-03T16:11:06;12.68;;;4.80;;
50429;SDS011;36359;41.556;-8.418;2023-04-03T16:13:33;13.20;;;4.97;;
50429;SDS011;36359;41.556;-8.418;2023-04-03T16:15:59;15.02;;;5.47;;
50429;SDS011;36359;41.556;-8.418;2023-04-03T16:18:25;12.13;;;5.35;;
50429;SDS011;36359;41.556;-8.418;2023-04-03T16:23:24;11.25;;;4.85;;
50429;SDS011;36359;41.556;-8.418;2023-04-03T16:25:50;13.40;;;4.28;;
50429;SDS011;36359;41.556;-8.418;2023-04-03T16:28:16;13.00;;;4.28;;
50429;SDS011;36359;41.556;-8.418;2023-04-03T16:30:43;10.85;;;3.80;;
50429;SDS011;36359;41.556;-8.418;2023-04-03T16:33:11;9.35;;;3.75;;
50429;SDS011;36359;41.556;-8.418;2023-04-03T16:35:37;11.90;;;4.15;;
50429;SDS011;36359;41.556;-8.418;2023-04-03T16:38:03;10.00;;;3.85;;
50429;SDS011;36359;41.556;-8.418;2023-04-03T16:40:29;9.85;;;5.30;;
50429;SDS011;36359;41.556;-8.418;2023-04-03T16:42:55;11.50;;;4.82;;
50429;SDS011;36359;41.556;-8.418;2023-04-03T16:45:21;12.27;;;4.70;;
50429;SDS011;36359;41.556;-8.418;2023-04-03T16:47:47;14.63;;;4.40;;
50429;SDS011;36359;41.556;-8.418;2023-04-03T16:50:13;12.77;;;3.92;;
50429;SDS011;36359;41.556;-8.418;2023-04-03T16:52:38;14.40;;;4.85;;
50429;SDS011;36359;41.556;-8.418;2023-04-03T16:55:04;10.43;;;4.70;;
50429;SDS011;36359;41.556;-8.418;2023-04-03T16:57:31;15.38;;;5.10;;